ENGLEBRIGHT (USACE) (ENG)

Elevation: 551' · YUBA R basin · Operator: US Army Corps of Engineers

Provisional data, subject to change.
Query executed Wednesday at 6:26:00   clock

Select a sensor type for a plot of data.
Note: Reservoir Flows are daily averages.

Earlier

Date RES ELE    STORAGE    RES CHG    OUTFLOW    INFLOW    PPT INC   
 FEET   AF   AF   CFS   CFS   INCHES  
06/28/2016 520.20 64586 869 -- 2890 0.00
06/29/2016 519.63 64150 -436 -- 2268 0.00
06/30/2016 518.56 63338 -812 -- 2085 0.00
07/01/2016 519.84 64310 972 -- 2790 0.00
07/02/2016 520.37 64716 406 -- 2133 0.00
07/03/2016 520.80 65047 331 -- 1839 0.00
07/04/2016 522.34 66242 1195 -- 2273 0.00
07/05/2016 521.03 65224 -1018 -- 1160 0.00
07/06/2016 522.63 66469 1245 -- 2334 0.00
07/07/2016 522.61 66453 -16 -- 1739 0.00
07/08/2016 522.73 66547 94 -- 1734 0.00
07/09/2016 523.13 66862 315 -- 1800 0.00
07/10/2016 522.27 66187 -675 -- 1288 0.00
07/11/2016 521.15 65317 -870 -- 1186 0.00
07/12/2016 521.03 65224 -93 -- 1586 0.00
07/13/2016 519.97 64410 -814 -- 1220 0.00
07/14/2016 520.84 65078 668 -- 1959 0.00
07/15/2016 521.57 65642 564 -- 1915 0.00
07/16/2016 521.42 65526 -116 -- 1588 0.00
07/17/2016 521.99 65969 443 -- 1853 0.00
07/18/2016 522.67 66500 531 -- 1877 0.00
07/19/2016 522.55 66406 -94 -- 1564 0.00
07/20/2016 522.12 66070 -336 -- 1438 0.00
07/21/2016 522.07 66031 -39 -- 1592 0.00
07/22/2016 521.39 65503 -528 -- 1371 0.00
07/23/2016 521.83 65844 341 -- 1813 0.00
07/24/2016 521.42 65526 -318 -- 1461 0.00
07/25/2016 522.61 66453 927 -- 2095 0.00
07/26/2016 522.63 66469 16 -- -- 0.00
07/27/2016 -- -- -- -- -- --

Later | Latest

Warning! This data is preliminary and subject to revision.

Show ENG Map | Plot ENG Data | 1 Month ENG Data | Real-Time ENG Data | ENG Info